createdAt,value
2023-11-04T05:02:44.869Z,97110.16
2023-11-04T05:06:47.608Z,97105.53
2023-11-04T05:10:50.350Z,97105.69
2023-11-04T05:14:52.961Z,97100.78
2023-11-04T05:18:56.995Z,97088.44
2023-11-04T05:23:00.018Z,97087.31
2023-11-04T05:27:03.510Z,97079.50
2023-11-04T05:31:06.066Z,97076.03
2023-11-04T05:35:10.418Z,97072.72
2023-11-04T05:39:13.977Z,97084.28
2023-11-04T05:43:16.666Z,97083.78
2023-11-04T05:47:19.274Z,97084.09
2023-11-04T05:51:27.281Z,97090.94
2023-11-04T05:55:29.942Z,97086.50
2023-11-04T05:59:32.588Z,97088.88
2023-11-04T06:03:35.299Z,97090.00
2023-11-04T06:07:39.374Z,97076.94
2023-11-04T06:11:42.216Z,97079.16
2023-11-04T06:15:45.052Z,97080.75
2023-11-04T06:19:47.801Z,97081.34
2023-11-04T06:23:51.823Z,97077.63
2023-11-04T06:27:54.533Z,97070.28
2023-11-04T06:31:57.181Z,97063.19
2023-11-04T06:36:00.050Z,97066.56
2023-11-04T06:40:04.123Z,97063.09
2023-11-04T06:44:07.124Z,97063.22
2023-11-04T06:48:09.898Z,97060.22
2023-11-04T06:52:12.560Z,97051.38
2023-11-04T06:56:16.669Z,97050.81
2023-11-04T07:00:20.991Z,97053.78
2023-11-04T07:04:23.660Z,97047.44
2023-11-04T07:08:26.299Z,97039.00
2023-11-04T07:12:30.291Z,97030.50
2023-11-04T07:16:32.896Z,97031.13
2023-11-04T07:20:36.619Z,97029.28
2023-11-04T07:24:39.362Z,97031.31
2023-11-04T07:28:45.673Z,97019.00
2023-11-04T07:32:49.585Z,97020.66
2023-11-04T07:36:52.592Z,97011.56
2023-11-04T07:40:55.251Z,97008.19
2023-11-04T07:44:59.220Z,97002.75
2023-11-04T07:49:01.867Z,97007.03
2023-11-04T07:53:04.604Z,97004.44
2023-11-04T07:57:07.202Z,97010.91
2023-11-04T08:01:11.260Z,97006.69
2023-11-04T08:05:15.853Z,97000.63
2023-11-04T08:09:19.437Z,96997.13
2023-11-04T08:13:23.328Z,96989.81
2023-11-04T08:17:27.603Z,96977.34
2023-11-04T08:21:30.914Z,96964.31
2023-11-04T08:25:33.545Z,96956.53
2023-11-04T08:29:36.940Z,96953.47
2023-11-04T08:33:42.175Z,96950.63
2023-11-04T08:37:46.115Z,96944.75
2023-11-04T08:41:48.934Z,96951.25
2023-11-04T08:45:52.417Z,96945.53
2023-11-04T08:49:56.482Z,96951.19
2023-11-04T08:53:59.603Z,96943.41
2023-11-04T08:58:02.280Z,96948.81
2023-11-04T09:02:05.195Z,96949.34
2023-11-04T09:06:09.805Z,96933.78
2023-11-04T09:10:12.705Z,96935.63
2023-11-04T09:14:15.380Z,96921.88
2023-11-04T09:18:20.024Z,96936.47
2023-11-04T09:22:24.547Z,96933.00
2023-11-04T09:26:27.215Z,96924.69
2023-11-04T09:30:30.050Z,96929.53
2023-11-04T09:34:32.831Z,96906.66
2023-11-04T09:38:37.477Z,96915.00
2023-11-04T09:42:42.381Z,96911.75
2023-11-04T09:46:45.508Z,96885.09
2023-11-04T09:50:50.593Z,96874.31
2023-11-04T09:54:55.884Z,96875.66
2023-11-04T09:58:59.022Z,96853.56
2023-11-04T10:03:01.716Z,96867.03
2023-11-04T10:07:05.013Z,96876.47
2023-11-04T10:11:09.156Z,96875.13
2023-11-04T10:15:11.934Z,96865.44
2023-11-04T10:19:15.455Z,96866.25
2023-11-04T10:23:18.242Z,96855.19
2023-11-04T10:27:22.212Z,96850.34
2023-11-04T10:31:26.719Z,96852.50
2023-11-04T10:35:29.703Z,96839.56
2023-11-04T10:39:33.739Z,96823.13
2023-11-04T10:43:43.723Z,96830.69
2023-11-04T10:47:54.836Z,96815.56
2023-11-04T10:52:04.311Z,96813.94
2023-11-04T10:56:11.005Z,96808.00
2023-11-04T11:00:21.079Z,96811.75
2023-11-04T11:04:24.844Z,96803.41
2023-11-04T11:08:27.696Z,96808.03
2023-11-04T11:12:33.371Z,96795.06
2023-11-04T11:16:37.636Z,96794.81
2023-11-04T11:20:40.713Z,96788.03
2023-11-04T11:24:49.704Z,96775.91
2023-11-04T11:28:52.372Z,96788.59
2023-11-04T11:33:06.977Z,96766.56
2023-11-04T11:37:09.681Z,96767.38
2023-11-04T11:41:14.546Z,96758.97
2023-11-04T11:45:17.423Z,96733.88
2023-11-04T11:49:21.423Z,96734.84
2023-11-04T11:53:24.110Z,96716.75
2023-11-04T11:57:27.466Z,96706.56
2023-11-04T12:01:30.320Z,96697.88
2023-11-04T12:05:34.799Z,96693.00
2023-11-04T12:09:37.522Z,96682.31
2023-11-04T12:13:40.542Z,96674.44
2023-11-04T12:17:43.474Z,96663.00
2023-11-04T12:21:47.964Z,96654.78
2023-11-04T12:25:50.581Z,96651.63
2023-11-04T12:29:54.576Z,96650.44
2023-11-04T12:33:58.378Z,96630.25
2023-11-04T12:38:02.514Z,96635.41
2023-11-04T12:42:05.930Z,96613.59
2023-11-04T12:46:09.702Z,96604.00
2023-11-04T12:50:14.501Z,96595.00
2023-11-04T12:54:18.541Z,96590.66
2023-11-04T12:58:21.206Z,96588.81
2023-11-04T13:02:23.948Z,96595.91
2023-11-04T13:06:26.654Z,96576.09
2023-11-04T13:10:30.654Z,96577.41
2023-11-04T13:14:33.832Z,96569.25
2023-11-04T13:18:36.617Z,96556.41
2023-11-04T13:22:39.430Z,96554.38
2023-11-04T13:26:44.058Z,96554.16
2023-11-04T13:30:46.726Z,96541.25
2023-11-04T13:34:50.171Z,96538.09
2023-11-04T13:39:00.376Z,96535.06
2023-11-04T13:43:10.799Z,96538.16
2023-11-04T13:47:18.349Z,96531.63
2023-11-04T13:51:21.668Z,96526.56
2023-11-04T13:55:24.425Z,96517.97
2023-11-04T13:59:28.398Z,96512.84
2023-11-04T14:03:32.491Z,96502.66
2023-11-04T14:07:35.752Z,96495.13
2023-11-04T14:11:38.423Z,96476.44
2023-11-04T14:15:42.423Z,96465.13
2023-11-04T14:19:45.125Z,96467.81
2023-11-04T14:23:48.098Z,96467.06
2023-11-04T14:27:51.156Z,96465.19
2023-11-04T14:31:55.136Z,96454.94
2023-11-04T14:35:57.796Z,96456.00
2023-11-04T14:40:01.719Z,96444.19
2023-11-04T14:44:05.019Z,96433.28
2023-11-04T14:48:09.325Z,96417.63
2023-11-04T14:52:12.114Z,96410.78
2023-11-04T14:56:14.851Z,96403.84
2023-11-04T15:00:18.070Z,96387.41
2023-11-04T15:04:22.205Z,96367.81
2023-11-04T15:08:24.911Z,96370.50
2023-11-04T15:12:27.898Z,96366.78
2023-11-04T15:16:30.852Z,96354.94
2023-11-04T15:20:35.281Z,96337.75
2023-11-04T15:24:39.104Z,96333.16
2023-11-04T15:28:41.747Z,96319.69
2023-11-04T15:32:44.720Z,96309.81
2023-11-04T15:36:48.783Z,96296.38
2023-11-04T15:40:51.423Z,96294.03
2023-11-04T15:44:54.093Z,96279.53
2023-11-04T15:48:56.857Z,96282.53
2023-11-04T15:53:00.935Z,96256.22
2023-11-04T15:57:03.610Z,96252.34
2023-11-04T16:01:06.303Z,96251.53
2023-11-04T16:05:09.920Z,96248.53
2023-11-04T16:09:14.589Z,96263.09
2023-11-04T16:13:17.357Z,96252.81
2023-11-04T16:17:20.032Z,96235.84
2023-11-04T16:21:22.704Z,96223.75
2023-11-04T16:25:27.742Z,96220.28
2023-11-04T16:29:30.443Z,96213.34
2023-11-04T16:33:33.104Z,96209.56
2023-11-04T16:37:35.780Z,96212.78
2023-11-04T16:41:39.735Z,96219.81
2023-11-04T16:45:42.437Z,96221.72
2023-11-04T16:49:45.154Z,96216.84
2023-11-04T16:53:48.785Z,96202.13
2023-11-04T16:57:52.749Z,96208.22
2023-11-04T17:01:55.669Z,96210.09
2023-11-04T17:05:59.731Z,96209.03
2023-11-04T17:10:03.759Z,96201.50
2023-11-04T17:14:07.963Z,96198.78
2023-11-04T17:18:10.792Z,96202.25
2023-11-04T17:22:13.754Z,96186.41
2023-11-04T17:26:16.470Z,96188.31
2023-11-04T17:30:20.677Z,96177.31
2023-11-04T17:34:24.160Z,96170.94
2023-11-04T17:38:26.692Z,96149.69
2023-11-04T17:42:29.367Z,96137.09
2023-11-04T17:46:36.390Z,96144.31
2023-11-04T17:50:41.134Z,96130.03
2023-11-04T17:54:44.842Z,96134.09
2023-11-04T17:58:49.383Z,96128.72
2023-11-04T18:02:53.580Z,96131.09
2023-11-04T18:06:56.281Z,96123.53
2023-11-04T18:10:59.749Z,96130.16
2023-11-04T18:15:02.503Z,96124.31
2023-11-04T18:19:06.758Z,96125.31
2023-11-04T18:23:09.477Z,96131.19
2023-11-04T18:27:13.437Z,96110.22
2023-11-04T18:31:16.129Z,96112.63
2023-11-04T18:35:21.359Z,96104.50
2023-11-04T18:39:24.023Z,96098.91
2023-11-04T18:43:26.707Z,96094.75
2023-11-04T18:47:29.420Z,96096.28
2023-11-04T18:51:33.456Z,96083.19
2023-11-04T18:55:36.152Z,96086.34
2023-11-04T18:59:38.879Z,96074.47
2023-11-04T19:03:41.597Z,96067.22
2023-11-04T19:07:45.574Z,96056.28
2023-11-04T19:11:48.353Z,96056.19
2023-11-04T19:15:51.091Z,96052.47
2023-11-04T19:19:53.733Z,96062.94
2023-11-04T19:23:58.500Z,96060.09
2023-11-04T19:28:02.537Z,96060.91
2023-11-04T19:32:05.913Z,96068.38
2023-11-04T19:36:09.414Z,96067.94
2023-11-04T19:40:14.874Z,96070.09
2023-11-04T19:44:17.505Z,96074.63
2023-11-04T19:48:20.393Z,96069.50
2023-11-04T19:52:23.087Z,96078.06
2023-11-04T19:56:27.083Z,96060.91
2023-11-04T20:00:29.713Z,96056.06
2023-11-04T20:04:32.526Z,96041.25
2023-11-04T20:08:39.895Z,96031.19
2023-11-04T20:12:43.866Z,96029.41
2023-11-04T20:16:46.501Z,96032.31
2023-11-04T20:20:49.264Z,96026.06
2023-11-04T20:24:53.922Z,96026.06
2023-11-04T20:28:57.912Z,96028.97
2023-11-04T20:33:01.053Z,96012.44
2023-11-04T20:37:03.792Z,96013.75
2023-11-04T20:41:06.561Z,96010.78
2023-11-04T20:45:10.814Z,96012.38
2023-11-04T20:49:14.229Z,96023.72
2023-11-04T20:53:16.707Z,96012.09
2023-11-04T20:57:19.306Z,96022.81
2023-11-04T21:01:23.488Z,96012.34
2023-11-04T21:05:26.180Z,96009.06
2023-11-04T21:09:28.849Z,96016.56
2023-11-04T21:13:37.091Z,96012.72
2023-11-04T21:17:41.085Z,96012.56
2023-11-04T21:21:43.749Z,96011.75
2023-11-04T21:25:46.393Z,96006.53
2023-11-04T21:29:49.039Z,95993.38
2023-11-04T21:33:53.043Z,95992.00
2023-11-04T21:37:55.720Z,95989.25
2023-11-04T21:41:58.308Z,95970.84
2023-11-04T21:46:00.978Z,95958.75
2023-11-04T21:50:05.384Z,95956.88
2023-11-04T21:54:08.584Z,95957.69
2023-11-04T21:58:11.280Z,95954.66
